Stella Polaris — PEBD — position and weather

sailwx.info

Track history (hours):
 
Tides and Currents Weather Stations Pressure Air Temp Water Temp Dewpoint Dewpoint Depression Visibility Wind Speed Wind Dir Waves Ship Positions

Stella Polaris

Last reported at 2016-Jun-26 07:33 UTC. Time now 2016-Jun-27 22:23 UTC.
Position N 55°34' E 015°13'.

Length 117 m; draft 5.6 m.

Type: Ship (hazmat cat A). MMSI: 245911000.

Date/timePositionNaut miles runAvg speedWind from/ knotsBaromVisibWave heightAir tempDewpointWater temp
2016-Jun-26 07:33N 55°34' E 015°13'1414.4
2016-Jun-26 06:33N 55°27' E 014°51'1414.1
2016-Jun-26 05:33N 55°18' E 014°31'1313.3
2016-Jun-26 04:33N 55°11' E 014°12'1413.7
2016-Jun-26 03:34N 55°11' E 013°48'2014.1
2016-Jun-26 02:10N 55°12' E 013°14'913.9
2016-Jun-26 01:32N 55°13' E 012°59'1313.2
2016-Jun-26 00:33N 55°19' E 012°38'1313.1
2016-Jun-25 23:33N 55°31' E 012°45'1111.5
2016-Jun-25 22:34N 55°39' E 012°59'1 1.2
2016-Jun-25 21:27N 55°38' E 013°01'0 0.0
2016-Jun-25 20:33N 55°38' E 013°01'0 0.0
2016-Jun-25 19:33N 55°38' E 013°01'0 0.0
2016-Jun-25 18:31N 55°38' E 013°01'0 0.0
2016-Jun-25 17:31N 55°38' E 013°01'0 0.0
2016-Jun-25 16:31N 55°38' E 013°01'0 0.0
2016-Jun-25 15:31N 55°38' E 013°01'0 0.0
2016-Jun-25 14:31N 55°38' E 013°01'0 0.0
2016-Jun-25 13:31N 55°38' E 013°01'0 0.0
2016-Jun-25 12:31N 55°38' E 013°01'0 0.0
2016-Jun-25 11:32N 55°38' E 013°01'4 4.1
2016-Jun-25 10:34N 55°41' E 012°57'0 0.0
2016-Jun-25 09:33N 55°41' E 012°57'0 0.1
2016-Jun-25 08:33N 55°41' E 012°57'0 0.0
2016-Jun-25 07:30N 55°41' E 012°57'0 0.1
2016-Jun-25 06:31N 55°41' E 012°57'0 0.0
2016-Jun-25 05:31N 55°41' E 012°57'0 0.1
2016-Jun-25 04:28N 55°41' E 012°57'0 0.0
2016-Jun-25 03:31N 55°41' E 012°57'0 0.0
2016-Jun-25 02:31N 55°41' E 012°57'0 0.0
2016-Jun-25 01:31N 55°41' E 012°57'0 0.0
2016-Jun-25 00:31N 55°41' E 012°57'0 0.0
2016-Jun-24 23:31N 55°41' E 012°57'0 0.0
2016-Jun-24 22:31N 55°41' E 012°57'0 0.0
2016-Jun-24 21:31N 55°41' E 012°57'0 0.0
2016-Jun-24 20:31N 55°41' E 012°57'0 0.0
2016-Jun-24 19:31N 55°41' E 012°57'0 0.0
2016-Jun-24 18:31N 55°41' E 012°57'0 0.0
2016-Jun-24 17:31N 55°41' E 012°57'0 0.0
2016-Jun-24 16:31N 55°41' E 012°57'0 0.0
2016-Jun-24 15:31N 55°41' E 012°57'0 0.0
2016-Jun-24 14:32N 55°41' E 012°57'0 0.0
2016-Jun-24 13:32N 55°41' E 012°57'0 0.0
2016-Jun-24 12:32N 55°41' E 012°57'0 0.0
2016-Jun-24 11:32N 55°41' E 012°57'0 0.0
2016-Jun-24 10:32N 55°41' E 012°57'0 0.0
2016-Jun-24 09:32N 55°41' E 012°57'0 0.0
2016-Jun-24 08:32N 55°41' E 012°57'0 0.0
2016-Jun-24 07:32N 55°41' E 012°57'0 0.0
2016-Jun-24 04:32N 55°41' E 012°57'0 0.0
2016-Jun-24 03:32N 55°41' E 012°57'0 0.0
2016-Jun-24 02:32N 55°41' E 012°57'5 4.7
2016-Jun-24 01:33N 55°45' E 012°51'1312.8
2016-Jun-24 00:33N 55°57' E 012°43'1212.1
2016-Jun-23 23:33N 56°07' E 012°31'1312.5
2016-Jun-23 22:34N 56°14' E 012°13'3013.3
2016-Jun-23 20:16N 56°42' E 011°53'1014.4
2016-Jun-23 19:33N 56°52' E 011°47'1514.6
2016-Jun-23 18:33N 57°06' E 011°38'1414.3
2016-Jun-23 17:33N 57°19' E 011°29'1313.3
2016-Jun-23 16:33N 57°31' E 011°17'1413.6
2016-Jun-23 15:33N 57°40' E 010°59'1513.6
2016-Jun-23 14:29N 57°47' E 010°35'29314.0
2016-Jun-22 17:33N 54°09' E 004°47'15512.8
2016-Jun-22 05:27N 51°44' E 003°15'1112.3
2016-Jun-22 04:33N 51°35' E 003°24'1312.8
2016-Jun-22 03:33N 51°26' E 003°39'9 9.1
2016-Jun-22 02:33N 51°20' E 003°49'6 5.8
2016-Jun-22 01:34N 51°14' E 003°48'2 1.5
2016-Jun-22 00:32N 51°12' E 003°48'0 0.0
2016-Jun-21 23:32N 51°12' E 003°48'0 0.0
2016-Jun-21 22:32N 51°12' E 003°48'0 0.0
2016-Jun-21 21:32N 51°12' E 003°48'0 0.0
2016-Jun-21 20:32N 51°12' E 003°48'0 0.0
2016-Jun-21 19:32N 51°12' E 003°48'0 0.0
2016-Jun-21 18:32N 51°12' E 003°48'0 0.0
2016-Jun-21 17:31N 51°12' E 003°48'0 0.0
2016-Jun-21 16:28N 51°12' E 003°48'0 0.0
2016-Jun-21 15:31N 51°12' E 003°48'0 0.0
2016-Jun-21 14:31N 51°12' E 003°48'0 0.0
2016-Jun-21 13:31N 51°12' E 003°48'0 0.0
2016-Jun-21 12:31N 51°12' E 003°48'0 0.0
2016-Jun-21 11:31N 51°12' E 003°48'0 0.0
2016-Jun-21 10:31N 51°12' E 003°48'0 0.0
2016-Jun-21 09:33N 51°12' E 003°48'6 6.1
2016-Jun-21 08:33N 51°18' E 003°50'1 1.4
2016-Jun-21 07:33N 51°20' E 003°49'4 4.1
2016-Jun-21 06:33N 51°22' E 003°44'2110.6
2016-Jun-21 04:33N 51°38' E 003°21'9111.0
2016-Jun-20 20:18N 52°48' E 001°47'1316.8
2016-Jun-20 19:33N 52°57' E 001°32'1616.3
2016-Jun-20 18:33N 53°11' E 001°18'7815.4
2016-Jun-20 13:30N 54°23' E 000°26'1314.1
2016-Jun-20 12:33N 54°35' E 000°19'1513.7
2016-Jun-20 11:26N 54°50' E 000°10'24513.7
2016-Jun-19 17:33N 58°34' W 002°51'1312.6
2016-Jun-19 16:33N 58°43' W 003°09'1212.3
2016-Jun-19 15:33N 58°43' W 003°32'1313.2
2016-Jun-19 14:33N 58°44' W 003°58'1313.1
2016-Jun-19 13:33N 58°44' W 004°23'  
Track history (hours):
 
Tides and Currents Weather Stations Pressure Air Temp Water Temp Dewpoint Dewpoint Depression Visibility Wind Speed Wind Dir Waves Ship Positions

Stella Polaris

Last reported at 2016-Jun-26 07:33 UTC. Time now 2016-Jun-27 22:23 UTC.
Position N 55°34' E 015°13'.

Length 117 m; draft 5.6 m.

Type: Ship (hazmat cat A). MMSI: 245911000.

Date/timePositionNaut miles runAvg speedWind from/ knotsBaromVisibWave heightAir tempDewpointWater temp
2016-Jun-26 07:33N 55°34' E 015°13'1414.4
2016-Jun-26 06:33N 55°27' E 014°51'1414.1
2016-Jun-26 05:33N 55°18' E 014°31'1313.3
2016-Jun-26 04:33N 55°11' E 014°12'1413.7
2016-Jun-26 03:34N 55°11' E 013°48'2014.1
2016-Jun-26 02:10N 55°12' E 013°14'913.9
2016-Jun-26 01:32N 55°13' E 012°59'1313.2
2016-Jun-26 00:33N 55°19' E 012°38'1313.1
2016-Jun-25 23:33N 55°31' E 012°45'1111.5
2016-Jun-25 22:34N 55°39' E 012°59'1 1.2
2016-Jun-25 21:27N 55°38' E 013°01'0 0.0
2016-Jun-25 20:33N 55°38' E 013°01'0 0.0
2016-Jun-25 19:33N 55°38' E 013°01'0 0.0
2016-Jun-25 18:31N 55°38' E 013°01'0 0.0
2016-Jun-25 17:31N 55°38' E 013°01'0 0.0
2016-Jun-25 16:31N 55°38' E 013°01'0 0.0
2016-Jun-25 15:31N 55°38' E 013°01'0 0.0
2016-Jun-25 14:31N 55°38' E 013°01'0 0.0
2016-Jun-25 13:31N 55°38' E 013°01'0 0.0
2016-Jun-25 12:31N 55°38' E 013°01'0 0.0
2016-Jun-25 11:32N 55°38' E 013°01'4 4.1
2016-Jun-25 10:34N 55°41' E 012°57'0 0.0
2016-Jun-25 09:33N 55°41' E 012°57'0 0.1
2016-Jun-25 08:33N 55°41' E 012°57'0 0.0
2016-Jun-25 07:30N 55°41' E 012°57'0 0.1
2016-Jun-25 06:31N 55°41' E 012°57'0 0.0
2016-Jun-25 05:31N 55°41' E 012°57'0 0.1
2016-Jun-25 04:28N 55°41' E 012°57'0 0.0
2016-Jun-25 03:31N 55°41' E 012°57'0 0.0
2016-Jun-25 02:31N 55°41' E 012°57'0 0.0
2016-Jun-25 01:31N 55°41' E 012°57'0 0.0
2016-Jun-25 00:31N 55°41' E 012°57'0 0.0
2016-Jun-24 23:31N 55°41' E 012°57'0 0.0
2016-Jun-24 22:31N 55°41' E 012°57'0 0.0
2016-Jun-24 21:31N 55°41' E 012°57'0 0.0
2016-Jun-24 20:31N 55°41' E 012°57'0 0.0
2016-Jun-24 19:31N 55°41' E 012°57'0 0.0
2016-Jun-24 18:31N 55°41' E 012°57'0 0.0
2016-Jun-24 17:31N 55°41' E 012°57'0 0.0
2016-Jun-24 16:31N 55°41' E 012°57'0 0.0
2016-Jun-24 15:31N 55°41' E 012°57'0 0.0
2016-Jun-24 14:32N 55°41' E 012°57'0 0.0
2016-Jun-24 13:32N 55°41' E 012°57'0 0.0
2016-Jun-24 12:32N 55°41' E 012°57'0 0.0
2016-Jun-24 11:32N 55°41' E 012°57'0 0.0
2016-Jun-24 10:32N 55°41' E 012°57'0 0.0
2016-Jun-24 09:32N 55°41' E 012°57'0 0.0
2016-Jun-24 08:32N 55°41' E 012°57'0 0.0
2016-Jun-24 07:32N 55°41' E 012°57'0 0.0
2016-Jun-24 04:32N 55°41' E 012°57'0 0.0
2016-Jun-24 03:32N 55°41' E 012°57'0 0.0
2016-Jun-24 02:32N 55°41' E 012°57'5 4.7
2016-Jun-24 01:33N 55°45' E 012°51'1312.8
2016-Jun-24 00:33N 55°57' E 012°43'1212.1
2016-Jun-23 23:33N 56°07' E 012°31'1312.5
2016-Jun-23 22:34N 56°14' E 012°13'3013.3
2016-Jun-23 20:16N 56°42' E 011°53'1014.4
2016-Jun-23 19:33N 56°52' E 011°47'1514.6
2016-Jun-23 18:33N 57°06' E 011°38'1414.3
2016-Jun-23 17:33N 57°19' E 011°29'1313.3
2016-Jun-23 16:33N 57°31' E 011°17'1413.6
2016-Jun-23 15:33N 57°40' E 010°59'1513.6
2016-Jun-23 14:29N 57°47' E 010°35'29314.0
2016-Jun-22 17:33N 54°09' E 004°47'15512.8
2016-Jun-22 05:27N 51°44' E 003°15'1112.3
2016-Jun-22 04:33N 51°35' E 003°24'1312.8
2016-Jun-22 03:33N 51°26' E 003°39'9 9.1
2016-Jun-22 02:33N 51°20' E 003°49'6 5.8
2016-Jun-22 01:34N 51°14' E 003°48'2 1.5
2016-Jun-22 00:32N 51°12' E 003°48'0 0.0
2016-Jun-21 23:32N 51°12' E 003°48'0 0.0
2016-Jun-21 22:32N 51°12' E 003°48'0 0.0
2016-Jun-21 21:32N 51°12' E 003°48'0 0.0
2016-Jun-21 20:32N 51°12' E 003°48'0 0.0
2016-Jun-21 19:32N 51°12' E 003°48'0 0.0
2016-Jun-21 18:32N 51°12' E 003°48'0 0.0
2016-Jun-21 17:31N 51°12' E 003°48'0 0.0
2016-Jun-21 16:28N 51°12' E 003°48'0 0.0
2016-Jun-21 15:31N 51°12' E 003°48'0 0.0
2016-Jun-21 14:31N 51°12' E 003°48'0 0.0
2016-Jun-21 13:31N 51°12' E 003°48'0 0.0
2016-Jun-21 12:31N 51°12' E 003°48'0 0.0
2016-Jun-21 11:31N 51°12' E 003°48'0 0.0
2016-Jun-21 10:31N 51°12' E 003°48'0 0.0
2016-Jun-21 09:33N 51°12' E 003°48'6 6.1
2016-Jun-21 08:33N 51°18' E 003°50'1 1.4
2016-Jun-21 07:33N 51°20' E 003°49'4 4.1
2016-Jun-21 06:33N 51°22' E 003°44'2110.6
2016-Jun-21 04:33N 51°38' E 003°21'9111.0
2016-Jun-20 20:18N 52°48' E 001°47'1316.8
2016-Jun-20 19:33N 52°57' E 001°32'1616.3
2016-Jun-20 18:33N 53°11' E 001°18'7815.4
2016-Jun-20 13:30N 54°23' E 000°26'1314.1
2016-Jun-20 12:33N 54°35' E 000°19'1513.7
2016-Jun-20 11:26N 54°50' E 000°10'24513.7
2016-Jun-19 17:33N 58°34' W 002°51'1312.6
2016-Jun-19 16:33N 58°43' W 003°09'1212.3
2016-Jun-19 15:33N 58°43' W 003°32'1313.2
2016-Jun-19 14:33N 58°44' W 003°58'1313.1
2016-Jun-19 13:33N 58°44' W 004°23'  

Dump ship's entire track history